Terminal Aerodrome Forecast
Issued by NWS

Home | Current Version | Previous Version | Text Only | Print | Product List | Glossary Off
Versions: 1 2 3 4 5 6 7 8 9 10 11 12 13 14

000
FTUS43 KGRB 261120
TAFCWA
TAF
KCWA 261120Z 2612/2712 VRB02KT P6SM SKC
     FM261500 25007KT P6SM FEW030
     FM270100 VRB03KT P6SM FEW040 BKN100
     FM270800 VRB03KT P6SM VCSH SCT040 BKN100=

USA.gov is the U.S. government's official web portal to all federal, state and local government web resources and services.